sensor_id;sensor_type;location;lat;lon;timestamp;temperature;humidity
48328;DHT22;34136;51.022;7.082;2023-03-14T05:57:19;9.90;17.50
48328;DHT22;34136;51.022;7.082;2023-03-14T06:00:25;9.90;17.20
48328;DHT22;34136;51.022;7.082;2023-03-14T06:03:22;9.80;16.90
48328;DHT22;34136;51.022;7.082;2023-03-14T06:06:09;9.90;16.80
48328;DHT22;34136;51.022;7.082;2023-03-14T06:08:55;9.90;16.60
48328;DHT22;34136;51.022;7.082;2023-03-14T06:11:44;9.90;16.20
48328;DHT22;34136;51.022;7.082;2023-03-14T06:14:32;9.90;15.70
48328;DHT22;34136;51.022;7.082;2023-03-14T06:17:18;9.90;15.80
48328;DHT22;34136;51.022;7.082;2023-03-14T06:20:12;9.90;15.40
48328;DHT22;34136;51.022;7.082;2023-03-14T06:22:58;10.00;15.60
48328;DHT22;34136;51.022;7.082;2023-03-14T06:25:45;10.00;15.50
48328;DHT22;34136;51.022;7.082;2023-03-14T06:28:31;10.10;16.00
48328;DHT22;34136;51.022;7.082;2023-03-14T06:31:20;10.00;15.80
48328;DHT22;34136;51.022;7.082;2023-03-14T06:34:12;10.00;15.80
48328;DHT22;34136;51.022;7.082;2023-03-14T06:36:59;10.00;16.20
48328;DHT22;34136;51.022;7.082;2023-03-14T06:39:46;10.00;15.80
48328;DHT22;34136;51.022;7.082;2023-03-14T06:42:42;10.00;15.80
48328;DHT22;34136;51.022;7.082;2023-03-14T06:45:28;10.10;15.40
48328;DHT22;34136;51.022;7.082;2023-03-14T06:48:15;10.00;15.60
48328;DHT22;34136;51.022;7.082;2023-03-14T06:51:07;10.00;15.50
48328;DHT22;34136;51.022;7.082;2023-03-14T06:53:54;10.10;15.00
48328;DHT22;34136;51.022;7.082;2023-03-14T06:56:44;10.10;15.40
48328;DHT22;34136;51.022;7.082;2023-03-14T06:59:30;10.10;15.20
48328;DHT22;34136;51.022;7.082;2023-03-14T07:02:17;10.10;14.50
48328;DHT22;34136;51.022;7.082;2023-03-14T07:05:04;10.20;15.20
48328;DHT22;34136;51.022;7.082;2023-03-14T07:07:51;10.20;14.70
48328;DHT22;34136;51.022;7.082;2023-03-14T07:10:37;10.30;14.90
48328;DHT22;34136;51.022;7.082;2023-03-14T07:13:25;10.30;13.70
48328;DHT22;34136;51.022;7.082;2023-03-14T07:16:20;10.30;13.90
48328;DHT22;34136;51.022;7.082;2023-03-14T07:19:07;10.30;13.70
48328;DHT22;34136;51.022;7.082;2023-03-14T07:21:56;10.40;13.70
48328;DHT22;34136;51.022;7.082;2023-03-14T07:24:46;10.40;13.20
48328;DHT22;34136;51.022;7.082;2023-03-14T07:27:32;10.50;13.30
48328;DHT22;34136;51.022;7.082;2023-03-14T07:30:18;10.50;13.20
48328;DHT22;34136;51.022;7.082;2023-03-14T07:33:05;10.50;13.00
48328;DHT22;34136;51.022;7.082;2023-03-14T07:35:52;10.50;12.90
48328;DHT22;34136;51.022;7.082;2023-03-14T07:38:38;10.60;13.10
48328;DHT22;34136;51.022;7.082;2023-03-14T07:41:40;10.60;12.70
48328;DHT22;34136;51.022;7.082;2023-03-14T07:44:52;10.60;12.50
48328;DHT22;34136;51.022;7.082;2023-03-14T07:47:39;10.60;12.80
48328;DHT22;34136;51.022;7.082;2023-03-14T07:50:26;10.70;12.90
48328;DHT22;34136;51.022;7.082;2023-03-14T07:53:12;10.70;12.60
48328;DHT22;34136;51.022;7.082;2023-03-14T07:55:59;10.70;13.00
48328;DHT22;34136;51.022;7.082;2023-03-14T07:58:45;10.70;12.60
48328;DHT22;34136;51.022;7.082;2023-03-14T08:01:31;10.70;12.80
48328;DHT22;34136;51.022;7.082;2023-03-14T08:04:17;10.80;13.00
48328;DHT22;34136;51.022;7.082;2023-03-14T08:07:03;10.90;12.50
48328;DHT22;34136;51.022;7.082;2023-03-14T08:09:50;10.90;12.40
48328;DHT22;34136;51.022;7.082;2023-03-14T08:12:36;11.00;12.50
48328;DHT22;34136;51.022;7.082;2023-03-14T08:15:23;11.10;12.40
48328;DHT22;34136;51.022;7.082;2023-03-14T08:18:10;11.00;12.00
48328;DHT22;34136;51.022;7.082;2023-03-14T08:20:56;11.00;12.30
48328;DHT22;34136;51.022;7.082;2023-03-14T08:23:42;11.10;13.00
48328;DHT22;34136;51.022;7.082;2023-03-14T08:26:29;11.00;12.40
48328;DHT22;34136;51.022;7.082;2023-03-14T08:29:15;11.00;13.50
48328;DHT22;34136;51.022;7.082;2023-03-14T08:32:02;11.10;13.50
48328;DHT22;34136;51.022;7.082;2023-03-14T08:34:48;11.20;13.40
48328;DHT22;34136;51.022;7.082;2023-03-14T08:37:46;11.30;14.10
48328;DHT22;34136;51.022;7.082;2023-03-14T08:40:32;11.30;15.60
48328;DHT22;34136;51.022;7.082;2023-03-14T08:43:18;11.30;16.10
48328;DHT22;34136;51.022;7.082;2023-03-14T08:46:05;11.40;15.10
48328;DHT22;34136;51.022;7.082;2023-03-14T08:48:51;11.40;15.60
48328;DHT22;34136;51.022;7.082;2023-03-14T08:51:38;11.40;15.80
48328;DHT22;34136;51.022;7.082;2023-03-14T08:54:24;11.40;17.00
48328;DHT22;34136;51.022;7.082;2023-03-14T08:57:10;11.40;17.00
48328;DHT22;34136;51.022;7.082;2023-03-14T08:59:57;11.20;17.00
48328;DHT22;34136;51.022;7.082;2023-03-14T09:02:43;11.20;18.00
48328;DHT22;34136;51.022;7.082;2023-03-14T09:05:33;11.20;18.20
48328;DHT22;34136;51.022;7.082;2023-03-14T09:08:19;11.20;18.00
48328;DHT22;34136;51.022;7.082;2023-03-14T09:11:08;11.20;18.60
48328;DHT22;34136;51.022;7.082;2023-03-14T09:13:54;11.30;18.90
48328;DHT22;34136;51.022;7.082;2023-03-14T09:16:41;11.30;18.50
48328;DHT22;34136;51.022;7.082;2023-03-14T09:19:27;11.20;19.40
48328;DHT22;34136;51.022;7.082;2023-03-14T09:22:13;11.20;20.00
48328;DHT22;34136;51.022;7.082;2023-03-14T09:25:00;11.10;20.20
48328;DHT22;34136;51.022;7.082;2023-03-14T09:27:46;11.10;20.70
48328;DHT22;34136;51.022;7.082;2023-03-14T09:30:32;11.10;20.60
48328;DHT22;34136;51.022;7.082;2023-03-14T09:33:19;11.10;20.40
48328;DHT22;34136;51.022;7.082;2023-03-14T09:36:05;11.00;19.60
48328;DHT22;34136;51.022;7.082;2023-03-14T09:38:52;11.00;20.10
48328;DHT22;34136;51.022;7.082;2023-03-14T09:41:41;11.10;20.30
48328;DHT22;34136;51.022;7.082;2023-03-14T09:44:34;11.00;19.40
48328;DHT22;34136;51.022;7.082;2023-03-14T09:48:22;11.00;19.90
48328;DHT22;34136;51.022;7.082;2023-03-14T09:51:15;10.80;20.60
48328;DHT22;34136;51.022;7.082;2023-03-14T09:54:04;10.30;16.80
48328;DHT22;34136;51.022;7.082;2023-03-14T09:56:51;10.00;14.70
48328;DHT22;34136;51.022;7.082;2023-03-14T10:03:40;9.60;14.60
48328;DHT22;34136;51.022;7.082;2023-03-14T10:06:29;9.30;15.90
48328;DHT22;34136;51.022;7.082;2023-03-14T10:09:21;9.30;17.20
48328;DHT22;34136;51.022;7.082;2023-03-14T10:12:08;9.30;17.10
48328;DHT22;34136;51.022;7.082;2023-03-14T10:15:30;9.20;18.10
48328;DHT22;34136;51.022;7.082;2023-03-14T10:18:23;9.20;18.90
48328;DHT22;34136;51.022;7.082;2023-03-14T10:22:14;9.20;18.60
48328;DHT22;34136;51.022;7.082;2023-03-14T10:25:33;9.10;17.80
48328;DHT22;34136;51.022;7.082;2023-03-14T10:28:29;8.90;19.70
48328;DHT22;34136;51.022;7.082;2023-03-14T10:31:15;8.90;20.10
48328;DHT22;34136;51.022;7.082;2023-03-14T10:34:04;8.90;19.90
48328;DHT22;34136;51.022;7.082;2023-03-14T10:36:55;8.80;19.60
48328;DHT22;34136;51.022;7.082;2023-03-14T10:39:51;8.70;17.80
48328;DHT22;34136;51.022;7.082;2023-03-14T10:42:42;8.70;18.20
48328;DHT22;34136;51.022;7.082;2023-03-14T10:45:58;8.70;16.80
48328;DHT22;34136;51.022;7.082;2023-03-14T10:48:45;8.60;18.50
48328;DHT22;34136;51.022;7.082;2023-03-14T10:51:32;8.50;19.50
48328;DHT22;34136;51.022;7.082;2023-03-14T10:54:22;8.50;19.10
48328;DHT22;34136;51.022;7.082;2023-03-14T10:57:11;8.50;18.80
48328;DHT22;34136;51.022;7.082;2023-03-14T10:59:57;8.40;19.00
48328;DHT22;34136;51.022;7.082;2023-03-14T11:05:46;8.20;21.40
48328;DHT22;34136;51.022;7.082;2023-03-14T11:11:45;8.10;21.80
48328;DHT22;34136;51.022;7.082;2023-03-14T11:18:19;8.40;21.40
48328;DHT22;34136;51.022;7.082;2023-03-14T11:21:13;8.40;20.70
48328;DHT22;34136;51.022;7.082;2023-03-14T11:27:18;8.60;20.10
48328;DHT22;34136;51.022;7.082;2023-03-14T11:30:18;8.70;19.80
48328;DHT22;34136;51.022;7.082;2023-03-14T11:36:20;8.60;19.20
48328;DHT22;34136;51.022;7.082;2023-03-14T11:39:13;8.60;19.10
48328;DHT22;34136;51.022;7.082;2023-03-14T11:42:01;8.50;18.00
48328;DHT22;34136;51.022;7.082;2023-03-14T11:44:49;8.20;17.50
48328;DHT22;34136;51.022;7.082;2023-03-14T11:47:39;8.10;19.20
48328;DHT22;34136;51.022;7.082;2023-03-14T11:50:28;8.00;18.70
48328;DHT22;34136;51.022;7.082;2023-03-14T11:56:22;8.10;21.20
48328;DHT22;34136;51.022;7.082;2023-03-14T11:59:19;8.10;20.70
48328;DHT22;34136;51.022;7.082;2023-03-14T12:08:38;8.00;16.80
48328;DHT22;34136;51.022;7.082;2023-03-14T12:11:35;7.70;15.20
48328;DHT22;34136;51.022;7.082;2023-03-14T12:17:20;7.50;14.60
48328;DHT22;34136;51.022;7.082;2023-03-14T12:20:27;7.50;15.20
48328;DHT22;34136;51.022;7.082;2023-03-14T12:23:14;7.50;14.90
48328;DHT22;34136;51.022;7.082;2023-03-14T12:26:27;7.50;14.90
48328;DHT22;34136;51.022;7.082;2023-03-14T12:29:29;7.70;14.40
48328;DHT22;34136;51.022;7.082;2023-03-14T12:32:25;7.70;14.50
48328;DHT22;34136;51.022;7.082;2023-03-14T12:35:43;7.80;14.10
48328;DHT22;34136;51.022;7.082;2023-03-14T12:38:45;7.80;12.50
48328;DHT22;34136;51.022;7.082;2023-03-14T12:41:42;7.90;12.30
48328;DHT22;34136;51.022;7.082;2023-03-14T12:50:15;7.70;8.70
48328;DHT22;34136;51.022;7.082;2023-03-14T12:56:43;7.70;10.00
48328;DHT22;34136;51.022;7.082;2023-03-14T12:59:39;7.60;6.00
48328;DHT22;34136;51.022;7.082;2023-03-14T13:02:44;7.60;7.20
48328;DHT22;34136;51.022;7.082;2023-03-14T13:05:31;7.70;7.90
48328;DHT22;34136;51.022;7.082;2023-03-14T13:08:42;7.80;9.40
48328;DHT22;34136;51.022;7.082;2023-03-14T13:11:29;7.90;4.50
48328;DHT22;34136;51.022;7.082;2023-03-14T13:14:19;7.90;6.40
48328;DHT22;34136;51.022;7.082;2023-03-14T13:17:11;8.00;4.90
48328;DHT22;34136;51.022;7.082;2023-03-14T13:20:03;8.20;3.10
48328;DHT22;34136;51.022;7.082;2023-03-14T13:22:51;8.10;1.20
48328;DHT22;34136;51.022;7.082;2023-03-14T13:25:37;8.10;2.30
48328;DHT22;34136;51.022;7.082;2023-03-14T13:28:23;8.20;2.80
48328;DHT22;34136;51.022;7.082;2023-03-14T13:31:24;8.40;5.70
48328;DHT22;34136;51.022;7.082;2023-03-14T13:34:11;8.40;2.50
48328;DHT22;34136;51.022;7.082;2023-03-14T13:36:57;8.30;3.40
48328;DHT22;34136;51.022;7.082;2023-03-14T13:39:50;8.20;1.20
48328;DHT22;34136;51.022;7.082;2023-03-14T13:42:36;8.10;1.00
48328;DHT22;34136;51.022;7.082;2023-03-14T13:45:22;7.90;1.20
48328;DHT22;34136;51.022;7.082;2023-03-14T13:48:11;7.70;5.00
48328;DHT22;34136;51.022;7.082;2023-03-14T13:51:06;7.70;3.60
48328;DHT22;34136;51.022;7.082;2023-03-14T13:53:55;7.50;3.40
48328;DHT22;34136;51.022;7.082;2023-03-14T13:56:41;7.50;5.30
48328;DHT22;34136;51.022;7.082;2023-03-14T13:59:35;7.50;4.20
48328;DHT22;34136;51.022;7.082;2023-03-14T14:02:22;7.60;4.80
48328;DHT22;34136;51.022;7.082;2023-03-14T14:05:11;7.70;5.30
48328;DHT22;34136;51.022;7.082;2023-03-14T14:07:57;7.60;3.00
48328;DHT22;34136;51.022;7.082;2023-03-14T14:10:47;7.70;4.50
48328;DHT22;34136;51.022;7.082;2023-03-14T14:13:35;7.80;4.70
48328;DHT22;34136;51.022;7.082;2023-03-14T14:16:24;7.80;3.50
48328;DHT22;34136;51.022;7.082;2023-03-14T14:19:13;7.80;3.70
48328;DHT22;34136;51.022;7.082;2023-03-14T14:22:00;7.80;4.80
48328;DHT22;34136;51.022;7.082;2023-03-14T14:24:46;7.50;1.00
48328;DHT22;34136;51.022;7.082;2023-03-14T14:27:42;7.30;1.00
48328;DHT22;34136;51.022;7.082;2023-03-14T14:30:33;7.10;1.00
48328;DHT22;34136;51.022;7.082;2023-03-14T14:33:21;7.00;1.00
48328;DHT22;34136;51.022;7.082;2023-03-14T14:36:16;7.10;1.00
48328;DHT22;34136;51.022;7.082;2023-03-14T14:41:56;6.90;1.00
48328;DHT22;34136;51.022;7.082;2023-03-14T14:44:43;7.10;1.00
48328;DHT22;34136;51.022;7.082;2023-03-14T14:47:30;7.00;1.00
48328;DHT22;34136;51.022;7.082;2023-03-14T14:50:30;7.10;1.00
48328;DHT22;34136;51.022;7.082;2023-03-14T14:56:18;7.30;1.00
48328;DHT22;34136;51.022;7.082;2023-03-14T14:59:06;7.40;1.00
48328;DHT22;34136;51.022;7.082;2023-03-14T15:01:59;7.40;1.00
48328;DHT22;34136;51.022;7.082;2023-03-14T15:04:46;7.40;1.00
48328;DHT22;34136;51.022;7.082;2023-03-14T15:07:33;7.50;1.00
48328;DHT22;34136;51.022;7.082;2023-03-14T15:10:22;7.50;1.00
48328;DHT22;34136;51.022;7.082;2023-03-14T15:13:08;7.50;1.00
48328;DHT22;34136;51.022;7.082;2023-03-14T15:15:54;7.60;1.00
48328;DHT22;34136;51.022;7.082;2023-03-14T15:18:41;7.70;1.00
48328;DHT22;34136;51.022;7.082;2023-03-14T15:21:28;7.80;1.00
48328;DHT22;34136;51.022;7.082;2023-03-14T15:24:16;7.80;1.00
48328;DHT22;34136;51.022;7.082;2023-03-14T15:27:03;7.80;1.00
48328;DHT22;34136;51.022;7.082;2023-03-14T15:29:51;7.90;1.00
48328;DHT22;34136;51.022;7.082;2023-03-14T15:32:37;8.00;1.00
48328;DHT22;34136;51.022;7.082;2023-03-14T15:35:23;8.00;1.00
48328;DHT22;34136;51.022;7.082;2023-03-14T15:38:15;8.10;1.00
48328;DHT22;34136;51.022;7.082;2023-03-14T15:41:02;8.10;1.00
48328;DHT22;34136;51.022;7.082;2023-03-14T15:43:48;8.10;1.00
48328;DHT22;34136;51.022;7.082;2023-03-14T15:46:35;8.10;1.00
48328;DHT22;34136;51.022;7.082;2023-03-14T15:49:21;8.20;1.00
48328;DHT22;34136;51.022;7.082;2023-03-14T15:52:07;8.20;1.00
48328;DHT22;34136;51.022;7.082;2023-03-14T15:54:53;8.20;1.00
48328;DHT22;34136;51.022;7.082;2023-03-14T15:57:42;8.20;1.00
48328;DHT22;34136;51.022;7.082;2023-03-14T16:00:29;8.20;1.00
48328;DHT22;34136;51.022;7.082;2023-03-14T16:03:16;8.30;1.00
48328;DHT22;34136;51.022;7.082;2023-03-14T16:06:04;8.10;1.00
48328;DHT22;34136;51.022;7.082;2023-03-14T16:08:50;8.00;1.00
48328;DHT22;34136;51.022;7.082;2023-03-14T16:11:37;7.90;1.00
48328;DHT22;34136;51.022;7.082;2023-03-14T16:14:23;7.90;1.00
48328;DHT22;34136;51.022;7.082;2023-03-14T16:17:10;7.90;1.00
48328;DHT22;34136;51.022;7.082;2023-03-14T16:19:56;7.90;1.00
48328;DHT22;34136;51.022;7.082;2023-03-14T16:22:42;7.80;1.00
48328;DHT22;34136;51.022;7.082;2023-03-14T16:25:29;7.90;1.00
48328;DHT22;34136;51.022;7.082;2023-03-14T16:28:15;7.90;1.00
48328;DHT22;34136;51.022;7.082;2023-03-14T16:31:07;7.90;1.00
48328;DHT22;34136;51.022;7.082;2023-03-14T16:33:53;7.80;1.00
48328;DHT22;34136;51.022;7.082;2023-03-14T16:36:40;7.80;1.00
48328;DHT22;34136;51.022;7.082;2023-03-14T16:39:26;7.70;1.00
48328;DHT22;34136;51.022;7.082;2023-03-14T16:42:12;7.70;1.00
48328;DHT22;34136;51.022;7.082;2023-03-14T16:45:08;7.70;1.00
48328;DHT22;34136;51.022;7.082;2023-03-14T16:47:54;7.60;1.00
48328;DHT22;34136;51.022;7.082;2023-03-14T16:50:40;7.60;1.00
48328;DHT22;34136;51.022;7.082;2023-03-14T16:53:26;7.60;1.00
48328;DHT22;34136;51.022;7.082;2023-03-14T16:56:13;7.50;1.00
48328;DHT22;34136;51.022;7.082;2023-03-14T16:59:00;7.50;1.00
48328;DHT22;34136;51.022;7.082;2023-03-14T17:01:46;7.50;1.00
48328;DHT22;34136;51.022;7.082;2023-03-14T17:04:39;7.50;1.00
48328;DHT22;34136;51.022;7.082;2023-03-14T17:07:50;7.50;1.00
48328;DHT22;34136;51.022;7.082;2023-03-14T17:10:37;7.40;1.00
48328;DHT22;34136;51.022;7.082;2023-03-14T17:13:23;7.30;1.00
48328;DHT22;34136;51.022;7.082;2023-03-14T17:16:10;7.30;1.00
48328;DHT22;34136;51.022;7.082;2023-03-14T17:18:57;7.20;1.00
48328;DHT22;34136;51.022;7.082;2023-03-14T17:21:43;7.10;1.00
48328;DHT22;34136;51.022;7.082;2023-03-14T17:24:29;7.10;1.00
48328;DHT22;34136;51.022;7.082;2023-03-14T17:27:44;7.00;1.00
48328;DHT22;34136;51.022;7.082;2023-03-14T17:30:30;7.00;1.00
48328;DHT22;34136;51.022;7.082;2023-03-14T17:33:17;6.90;1.00
48328;DHT22;34136;51.022;7.082;2023-03-14T17:36:03;7.00;1.00
48328;DHT22;34136;51.022;7.082;2023-03-14T17:38:50;7.00;1.00
48328;DHT22;34136;51.022;7.082;2023-03-14T17:41:36;7.00;1.00
48328;DHT22;34136;51.022;7.082;2023-03-14T17:44:22;7.00;1.00
48328;DHT22;34136;51.022;7.082;2023-03-14T17:47:08;7.00;1.00
48328;DHT22;34136;51.022;7.082;2023-03-14T17:49:55;7.00;1.00
48328;DHT22;34136;51.022;7.082;2023-03-14T17:52:41;6.90;1.00
48328;DHT22;34136;51.022;7.082;2023-03-14T17:55:28;6.90;1.00
48328;DHT22;34136;51.022;7.082;2023-03-14T17:58:15;6.80;1.00
48328;DHT22;34136;51.022;7.082;2023-03-14T18:01:16;6.80;1.00
48328;DHT22;34136;51.022;7.082;2023-03-14T18:04:03;6.80;1.00
48328;DHT22;34136;51.022;7.082;2023-03-14T18:06:49;6.80;1.00
48328;DHT22;34136;51.022;7.082;2023-03-14T18:09:35;6.90;1.00
48328;DHT22;34136;51.022;7.082;2023-03-14T18:12:22;6.90;1.00
48328;DHT22;34136;51.022;7.082;2023-03-14T18:15:08;6.80;1.00
48328;DHT22;34136;51.022;7.082;2023-03-14T18:17:55;6.80;1.00
48328;DHT22;34136;51.022;7.082;2023-03-14T18:20:41;6.80;1.00
48328;DHT22;34136;51.022;7.082;2023-03-14T18:23:27;6.80;1.00
48328;DHT22;34136;51.022;7.082;2023-03-14T18:26:13;6.70;1.00
48328;DHT22;34136;51.022;7.082;2023-03-14T18:29:00;6.70;1.00
48328;DHT22;34136;51.022;7.082;2023-03-14T18:31:46;6.70;1.00
48328;DHT22;34136;51.022;7.082;2023-03-14T18:34:32;6.80;1.00
48328;DHT22;34136;51.022;7.082;2023-03-14T18:37:19;6.70;1.00
48328;DHT22;34136;51.022;7.082;2023-03-14T18:40:05;6.70;1.00
48328;DHT22;34136;51.022;7.082;2023-03-14T18:42:53;6.60;1.00
48328;DHT22;34136;51.022;7.082;2023-03-14T18:45:40;6.50;1.00
48328;DHT22;34136;51.022;7.082;2023-03-14T18:48:28;6.40;1.00
48328;DHT22;34136;51.022;7.082;2023-03-14T18:51:15;6.40;1.00
48328;DHT22;34136;51.022;7.082;2023-03-14T18:54:01;6.40;1.00
48328;DHT22;34136;51.022;7.082;2023-03-14T18:56:48;6.40;1.00
48328;DHT22;34136;51.022;7.082;2023-03-14T18:59:34;6.40;1.00
48328;DHT22;34136;51.022;7.082;2023-03-14T19:02:21;6.40;1.00
48328;DHT22;34136;51.022;7.082;2023-03-14T19:05:08;6.40;1.00
48328;DHT22;34136;51.022;7.082;2023-03-14T19:07:54;6.30;1.00
48328;DHT22;34136;51.022;7.082;2023-03-14T19:10:41;6.30;1.00
48328;DHT22;34136;51.022;7.082;2023-03-14T19:13:27;6.20;1.00
48328;DHT22;34136;51.022;7.082;2023-03-14T19:16:14;6.20;1.00
48328;DHT22;34136;51.022;7.082;2023-03-14T19:19:00;6.10;1.00
48328;DHT22;34136;51.022;7.082;2023-03-14T19:21:47;6.10;1.00
48328;DHT22;34136;51.022;7.082;2023-03-14T19:24:33;6.00;1.00
48328;DHT22;34136;51.022;7.082;2023-03-14T19:27:20;6.00;1.00
48328;DHT22;34136;51.022;7.082;2023-03-14T19:30:06;6.10;1.00
48328;DHT22;34136;51.022;7.082;2023-03-14T19:32:53;6.10;1.00
48328;DHT22;34136;51.022;7.082;2023-03-14T19:35:39;6.10;1.00
48328;DHT22;34136;51.022;7.082;2023-03-14T19:38:26;6.10;1.00
48328;DHT22;34136;51.022;7.082;2023-03-14T19:41:12;6.00;1.00
48328;DHT22;34136;51.022;7.082;2023-03-14T19:43:58;5.90;1.00
48328;DHT22;34136;51.022;7.082;2023-03-14T19:46:44;6.00;1.00
48328;DHT22;34136;51.022;7.082;2023-03-14T19:49:31;5.90;1.00
48328;DHT22;34136;51.022;7.082;2023-03-14T19:52:17;5.90;1.00
48328;DHT22;34136;51.022;7.082;2023-03-14T19:55:04;5.90;1.00
48328;DHT22;34136;51.022;7.082;2023-03-14T19:57:50;5.80;1.00
48328;DHT22;34136;51.022;7.082;2023-03-14T20:00:37;5.80;1.00
48328;DHT22;34136;51.022;7.082;2023-03-14T20:03:23;5.80;1.00
48328;DHT22;34136;51.022;7.082;2023-03-14T20:06:11;5.80;1.00
48328;DHT22;34136;51.022;7.082;2023-03-14T20:08:58;5.80;1.00
48328;DHT22;34136;51.022;7.082;2023-03-14T20:11:44;5.70;1.00
48328;DHT22;34136;51.022;7.082;2023-03-14T20:14:30;5.70;1.00
48328;DHT22;34136;51.022;7.082;2023-03-14T20:17:16;5.70;1.00
48328;DHT22;34136;51.022;7.082;2023-03-14T20:20:07;5.80;1.00
48328;DHT22;34136;51.022;7.082;2023-03-14T20:22:53;5.70;1.00
48328;DHT22;34136;51.022;7.082;2023-03-14T20:25:40;5.70;1.00
48328;DHT22;34136;51.022;7.082;2023-03-14T20:28:26;5.70;1.00
48328;DHT22;34136;51.022;7.082;2023-03-14T20:31:18;5.70;1.00
48328;DHT22;34136;51.022;7.082;2023-03-14T20:34:04;5.60;1.00
48328;DHT22;34136;51.022;7.082;2023-03-14T20:37:00;5.60;1.00
48328;DHT22;34136;51.022;7.082;2023-03-14T20:39:51;5.40;1.00
48328;DHT22;34136;51.022;7.082;2023-03-14T20:42:37;5.40;1.00
48328;DHT22;34136;51.022;7.082;2023-03-14T20:45:26;5.40;1.00
48328;DHT22;34136;51.022;7.082;2023-03-14T20:48:13;5.30;1.00
48328;DHT22;34136;51.022;7.082;2023-03-14T20:50:59;5.40;1.00
48328;DHT22;34136;51.022;7.082;2023-03-14T20:53:45;5.30;1.00
48328;DHT22;34136;51.022;7.082;2023-03-14T20:56:31;5.30;1.00
48328;DHT22;34136;51.022;7.082;2023-03-14T20:59:18;5.20;1.00
48328;DHT22;34136;51.022;7.082;2023-03-14T21:02:04;5.20;1.00
48328;DHT22;34136;51.022;7.082;2023-03-14T21:04:50;5.20;1.00
48328;DHT22;34136;51.022;7.082;2023-03-14T21:07:37;5.20;1.00
48328;DHT22;34136;51.022;7.082;2023-03-14T21:10:23;5.20;1.00
48328;DHT22;34136;51.022;7.082;2023-03-14T21:13:09;5.20;1.00
48328;DHT22;34136;51.022;7.082;2023-03-14T21:16:00;5.10;1.00
48328;DHT22;34136;51.022;7.082;2023-03-14T21:18:46;5.00;1.00
48328;DHT22;34136;51.022;7.082;2023-03-14T21:21:32;5.10;1.00
48328;DHT22;34136;51.022;7.082;2023-03-14T21:24:19;5.00;1.00
48328;DHT22;34136;51.022;7.082;2023-03-14T21:27:05;5.10;1.00
48328;DHT22;34136;51.022;7.082;2023-03-14T21:29:51;5.00;1.00
48328;DHT22;34136;51.022;7.082;2023-03-14T21:32:38;5.00;1.00
48328;DHT22;34136;51.022;7.082;2023-03-14T21:35:24;4.90;1.00
48328;DHT22;34136;51.022;7.082;2023-03-14T21:38:10;4.90;1.00
48328;DHT22;34136;51.022;7.082;2023-03-14T21:40:57;4.80;1.00
48328;DHT22;34136;51.022;7.082;2023-03-14T21:43:43;4.80;1.00
48328;DHT22;34136;51.022;7.082;2023-03-14T21:46:29;4.70;1.00
48328;DHT22;34136;51.022;7.082;2023-03-14T21:49:16;4.60;1.00
48328;DHT22;34136;51.022;7.082;2023-03-14T21:52:07;4.70;1.00
48328;DHT22;34136;51.022;7.082;2023-03-14T21:54:53;4.70;1.00
48328;DHT22;34136;51.022;7.082;2023-03-14T21:57:39;4.70;1.00
48328;DHT22;34136;51.022;7.082;2023-03-14T22:00:26;4.60;1.00
48328;DHT22;34136;51.022;7.082;2023-03-14T22:03:12;4.60;1.00
48328;DHT22;34136;51.022;7.082;2023-03-14T22:05:58;4.50;1.00
48328;DHT22;34136;51.022;7.082;2023-03-14T22:08:53;4.40;1.00
48328;DHT22;34136;51.022;7.082;2023-03-14T22:12:05;4.30;1.00
48328;DHT22;34136;51.022;7.082;2023-03-14T22:14:52;4.30;1.00
48328;DHT22;34136;51.022;7.082;2023-03-14T22:17:38;4.30;1.00
48328;DHT22;34136;51.022;7.082;2023-03-14T22:20:24;4.30;1.00
48328;DHT22;34136;51.022;7.082;2023-03-14T22:23:10;4.20;1.00
48328;DHT22;34136;51.022;7.082;2023-03-14T22:26:01;4.10;1.00
48328;DHT22;34136;51.022;7.082;2023-03-14T22:29:04;4.00;1.00
48328;DHT22;34136;51.022;7.082;2023-03-14T22:31:51;4.00;1.00
48328;DHT22;34136;51.022;7.082;2023-03-14T22:34:37;3.90;1.00
48328;DHT22;34136;51.022;7.082;2023-03-14T22:37:23;3.90;1.00
48328;DHT22;34136;51.022;7.082;2023-03-14T22:40:09;3.90;1.00
48328;DHT22;34136;51.022;7.082;2023-03-14T22:42:55;3.90;1.00
48328;DHT22;34136;51.022;7.082;2023-03-14T22:45:58;3.90;1.00
48328;DHT22;34136;51.022;7.082;2023-03-14T22:48:45;3.90;1.00
48328;DHT22;34136;51.022;7.082;2023-03-14T22:51:31;3.80;1.00
48328;DHT22;34136;51.022;7.082;2023-03-14T22:54:16;3.80;1.00
48328;DHT22;34136;51.022;7.082;2023-03-14T22:57:03;3.80;1.00
48328;DHT22;34136;51.022;7.082;2023-03-14T22:59:49;3.80;1.00
48328;DHT22;34136;51.022;7.082;2023-03-14T23:02:35;3.70;1.00
48328;DHT22;34136;51.022;7.082;2023-03-14T23:05:21;3.70;1.00
48328;DHT22;34136;51.022;7.082;2023-03-14T23:08:07;3.70;1.00
48328;DHT22;34136;51.022;7.082;2023-03-14T23:11:01;3.60;1.00
48328;DHT22;34136;51.022;7.082;2023-03-14T23:13:47;3.60;1.00
48328;DHT22;34136;51.022;7.082;2023-03-14T23:16:33;3.60;1.00
48328;DHT22;34136;51.022;7.082;2023-03-14T23:19:20;3.50;1.00
48328;DHT22;34136;51.022;7.082;2023-03-14T23:22:06;3.40;1.00
48328;DHT22;34136;51.022;7.082;2023-03-14T23:24:52;3.50;1.00
48328;DHT22;34136;51.022;7.082;2023-03-14T23:27:38;3.50;1.00
48328;DHT22;34136;51.022;7.082;2023-03-14T23:30:24;3.50;1.00
48328;DHT22;34136;51.022;7.082;2023-03-14T23:33:11;3.50;1.00
48328;DHT22;34136;51.022;7.082;2023-03-14T23:35:57;3.50;1.00
48328;DHT22;34136;51.022;7.082;2023-03-14T23:38:44;3.50;1.00
48328;DHT22;34136;51.022;7.082;2023-03-14T23:41:30;3.50;1.00
48328;DHT22;34136;51.022;7.082;2023-03-14T23:44:16;3.50;1.00
48328;DHT22;34136;51.022;7.082;2023-03-14T23:47:03;3.40;1.00
48328;DHT22;34136;51.022;7.082;2023-03-14T23:49:49;3.50;1.00
48328;DHT22;34136;51.022;7.082;2023-03-14T23:52:35;3.50;1.00
48328;DHT22;34136;51.022;7.082;2023-03-14T23:55:21;3.50;1.00
48328;DHT22;34136;51.022;7.082;2023-03-14T23:58:07;3.50;1.00
